Time;durP1;ratioP1;P1;durP2;ratioP2;P2;SDS_P1;SDS_P2;PMS_P1;PMS_P2;Temp;Humidity;BMP_temperature;BMP_pressure;BME280_temperature;BME280_humidity;BME280_pressure;Samples;Min_cycle;Max_cycle;Signal;HPM_P1;HPM_P2
2021/04/04 00:00:08;;;;;;;0.00;0.00;;;14.40;62.60;;;;;;4214590;28;20495;-45
2021/04/04 00:02:32;;;;;;;0.00;0.00;;;14.40;62.70;;;;;;4214282;28;20057;-50
2021/04/04 00:04:52;;;;;;;0.10;0.10;;;14.40;62.80;;;;;;4214556;28;20623;-49
2021/04/04 00:07:14;;;;;;;0.00;0.00;;;14.40;62.80;;;;;;4214411;28;20056;-45
2021/04/04 00:09:35;;;;;;;0.00;0.00;;;14.40;63.70;;;;;;4214278;28;20448;-46
2021/04/04 00:11:57;;;;;;;0.00;0.00;;;14.40;62.80;;;;;;4214342;28;20063;-46
2021/04/04 00:14:19;;;;;;;0.15;0.15;;;14.40;62.90;;;;;;4214057;28;20052;-47
2021/04/04 00:16:39;;;;;;;0.47;0.47;;;14.40;62.80;;;;;;4213737;28;20048;-48
2021/04/04 00:19:00;;;;;;;0.10;0.10;;;14.30;62.80;;;;;;4213612;28;20076;-47
2021/04/04 00:21:22;;;;;;;0.28;0.28;;;14.40;63.00;;;;;;4213610;28;20052;-44
2021/04/04 00:23:43;;;;;;;0.00;0.00;;;14.40;63.10;;;;;;4213725;28;20555;-45
2021/04/04 00:26:04;;;;;;;0.00;0.00;;;14.30;63.10;;;;;;4213904;28;20060;-44
2021/04/04 00:28:26;;;;;;;0.38;0.38;;;14.30;63.10;;;;;;4213627;28;20056;-44
2021/04/04 00:30:47;;;;;;;0.00;0.00;;;14.40;63.30;;;;;;4213725;28;20059;-47
2021/04/04 00:33:08;;;;;;;0.00;0.00;;;14.40;63.30;;;;;;4213579;28;20494;-44
2021/04/04 00:35:29;;;;;;;0.43;0.43;;;14.40;63.30;;;;;;4213524;28;20135;-45
2021/04/04 00:37:51;;;;;;;0.00;0.00;;;14.30;63.20;;;;;;4213141;28;20052;-44
2021/04/04 00:40:13;;;;;;;0.00;0.00;;;14.40;63.30;;;;;;4213090;28;20422;-44
2021/04/04 00:42:34;;;;;;;0.00;0.00;;;14.40;63.30;;;;;;4213432;28;20045;-45
2021/04/04 00:44:56;;;;;;;0.00;0.00;;;14.40;63.30;;;;;;4213708;28;20048;-45
2021/04/04 00:47:17;;;;;;;0.00;0.00;;;14.40;63.30;;;;;;4213208;28;20109;-44
2021/04/04 00:49:38;;;;;;;0.00;0.00;;;14.40;63.40;;;;;;4213533;28;20130;-44
2021/04/04 00:51:59;;;;;;;0.00;0.00;;;14.40;63.50;;;;;;4213440;28;20765;-44
2021/04/04 00:54:21;;;;;;;0.00;0.00;;;14.30;63.50;;;;;;4213408;28;20437;-45
2021/04/04 00:56:42;;;;;;;0.00;0.00;;;14.30;63.60;;;;;;4213353;28;20056;-44
2021/04/04 00:59:04;;;;;;;0.65;0.47;;;14.30;63.60;;;;;;4212574;28;20056;-45
2021/04/04 01:01:27;;;;;;;0.00;0.00;;;14.30;63.70;;;;;;4203181;28;20075;-45
2021/04/04 01:03:49;;;;;;;1.10;1.00;;;14.30;63.80;;;;;;4213070;28;20138;-45
2021/04/04 01:06:11;;;;;;;0.00;0.00;;;14.30;63.90;;;;;;4213409;28;20139;-44
2021/04/04 01:08:32;;;;;;;0.00;0.00;;;14.30;64.00;;;;;;4213230;28;20066;-46
2021/04/04 01:10:53;;;;;;;0.15;0.15;;;14.30;64.00;;;;;;4213141;28;20052;-44
2021/04/04 01:13:20;;;;;;;0.00;0.00;;;14.30;64.10;;;;;;4213033;28;20056;-44
2021/04/04 01:15:44;;;;;;;0.00;0.00;;;14.30;64.10;;;;;;4212653;28;20969;-44
2021/04/04 01:18:14;;;;;;;0.00;0.00;;;14.30;64.10;;;;;;4212590;28;20139;-45
2021/04/04 01:20:42;;;;;;;0.00;0.00;;;14.20;64.20;;;;;;4207818;28;20414;-46
2021/04/04 01:23:16;;;;;;;0.13;0.13;;;14.30;64.20;;;;;;4213084;28;20063;-45
2021/04/04 01:25:45;;;;;;;0.00;0.00;;;14.30;64.30;;;;;;4212728;28;20131;-45
2021/04/04 01:28:11;;;;;;;0.00;0.00;;;14.30;64.20;;;;;;4212861;28;20044;-45
2021/04/04 01:30:34;;;;;;;0.68;0.68;;;14.30;64.20;;;;;;4212784;28;20058;-44
2021/04/04 01:32:57;;;;;;;2.65;0.95;;;14.30;64.00;;;;;;4212974;28;20510;-44
2021/04/04 01:35:21;;;;;;;0.75;0.75;;;14.50;63.90;;;;;;4212913;28;20079;-45
2021/04/04 01:37:44;;;;;;;0.00;0.00;;;14.60;64.30;;;;;;4213105;28;20059;-45
2021/04/04 01:40:08;;;;;;;0.00;0.00;;;14.80;63.00;;;;;;4212962;28;20044;-46
2021/04/04 01:42:30;;;;;;;0.95;0.95;;;14.90;62.50;;;;;;4212985;28;20406;-45
2021/04/04 01:44:52;;;;;;;0.00;0.00;;;15.10;62.20;;;;;;4212624;28;20125;-46
2021/04/04 01:47:15;;;;;;;0.00;0.00;;;15.10;62.10;;;;;;4212626;28;20410;-44
2021/04/04 01:49:39;;;;;;;0.00;0.00;;;15.20;62.00;;;;;;4212412;28;20056;-44
2021/04/04 01:52:01;;;;;;;0.00;0.00;;;15.10;61.90;;;;;;4212331;28;20600;-48
2021/04/04 01:54:22;;;;;;;0.00;0.00;;;15.20;62.00;;;;;;4211132;28;20063;-49
2021/04/04 01:56:44;;;;;;;0.10;0.10;;;15.10;61.80;;;;;;4212829;28;20077;-54
2021/04/04 01:59:05;;;;;;;;;;;15.10;61.90;;;;;;4212748;28;20398;-45
2021/04/04 02:01:27;;;;;;;;;;;15.00;62.10;;;;;;4212684;28;19930;-45
2021/04/04 02:03:49;;;;;;;0.00;0.00;;;15.10;62.00;;;;;;4212511;28;20340;-44
2021/04/04 02:06:11;;;;;;;0.80;0.80;;;15.00;62.10;;;;;;4195851;28;20497;-44
2021/04/04 02:08:35;;;;;;;0.63;0.63;;;15.00;62.20;;;;;;4195989;28;20059;-45
2021/04/04 02:10:58;;;;;;;1.55;0.80;;;14.90;62.20;;;;;;4195684;28;20053;-44
2021/04/04 02:13:20;;;;;;;0.00;0.00;;;14.90;62.30;;;;;;4195877;28;20491;-44
2021/04/04 02:15:43;;;;;;;0.00;0.00;;;14.90;62.30;;;;;;4200645;28;20490;-45
2021/04/04 02:18:08;;;;;;;0.10;0.10;;;14.90;62.30;;;;;;4212470;28;20082;-45
2021/04/04 02:20:32;;;;;;;13.48;0.98;;;14.90;62.40;;;;;;4212088;28;20498;-44
2021/04/04 02:22:55;;;;;;;0.00;0.00;;;14.90;62.60;;;;;;4212069;28;20134;-44
2021/04/04 02:25:17;;;;;;;0.00;0.00;;;14.80;62.60;;;;;;4211850;28;20052;-45
2021/04/04 02:27:39;;;;;;;0.00;0.00;;;14.80;62.60;;;;;;4211970;28;20056;-44
2021/04/04 02:30:02;;;;;;;0.00;0.00;;;14.80;62.80;;;;;;4212047;28;20094;-45
2021/04/04 02:32:26;;;;;;;0.00;0.00;;;14.90;62.60;;;;;;4195577;28;20131;-44
2021/04/04 02:34:50;;;;;;;0.00;0.00;;;15.00;62.30;;;;;;4194577;28;20052;-45
2021/04/04 02:37:15;;;;;;;0.00;0.00;;;15.10;62.00;;;;;;4195618;28;20063;-44
2021/04/04 02:39:41;;;;;;;0.00;0.00;;;15.20;62.00;;;;;;4195521;28;20143;-45
2021/04/04 02:42:05;;;;;;;0.00;0.00;;;15.40;61.50;;;;;;4195604;28;20503;-44
2021/04/04 02:44:28;;;;;;;0.10;0.10;;;15.60;60.90;;;;;;4195459;28;20131;-49
2021/04/04 02:46:52;;;;;;;0.00;0.00;;;15.70;60.40;;;;;;4210580;28;20155;-45
2021/04/04 02:49:15;;;;;;;0.00;0.00;;;15.80;60.10;;;;;;4210866;28;20044;-44
2021/04/04 02:51:40;;;;;;;0.13;0.13;;;15.80;59.90;;;;;;4212157;28;20052;-43
2021/04/04 02:54:02;;;;;;;0.40;0.40;;;15.80;60.00;;;;;;4212342;28;20052;-44
2021/04/04 02:56:24;;;;;;;0.10;0.10;;;15.80;60.20;;;;;;4210926;28;20584;-44
2021/04/04 02:58:47;;;;;;;0.00;0.00;;;15.70;60.30;;;;;;4211895;28;20120;-45
2021/04/04 03:01:10;;;;;;;0.00;0.00;;;15.60;60.40;;;;;;4211749;28;20476;-44
2021/04/04 03:03:32;;;;;;;0.28;0.28;;;15.60;60.80;;;;;;4212144;28;20093;-44
2021/04/04 03:05:54;;;;;;;0.00;0.00;;;15.50;60.80;;;;;;4211918;28;20051;-44
2021/04/04 03:08:18;;;;;;;0.00;0.00;;;15.50;61.00;;;;;;4211102;28;20487;-44
2021/04/04 03:10:40;;;;;;;0.00;0.00;;;15.40;61.20;;;;;;4212038;28;20056;-44
2021/04/04 03:13:02;;;;;;;0.00;0.00;;;15.40;61.40;;;;;;4213788;28;20173;-47
2021/04/04 03:15:24;;;;;;;0.00;0.00;;;15.40;61.50;;;;;;4214915;28;20060;-44
2021/04/04 03:17:46;;;;;;;0.00;0.00;;;15.30;61.60;;;;;;4215239;28;20047;-44
2021/04/04 03:20:09;;;;;;;0.40;0.40;;;15.20;61.70;;;;;;4215090;28;20052;-44
2021/04/04 03:22:30;;;;;;;0.00;0.00;;;15.20;61.80;;;;;;4215153;28;20442;-44
2021/04/04 03:24:53;;;;;;;0.00;0.00;;;15.20;62.00;;;;;;4215088;28;20144;-46
2021/04/04 03:27:17;;;;;;;0.00;0.00;;;15.10;62.10;;;;;;4214914;28;20048;-44
2021/04/04 03:29:40;;;;;;;0.00;0.00;;;15.10;62.30;;;;;;4214808;28;20075;-46
2021/04/04 03:32:02;;;;;;;0.00;0.00;;;15.10;62.40;;;;;;4214784;28;20156;-45
2021/04/04 03:34:24;;;;;;;0.10;0.10;;;15.30;62.10;;;;;;4214945;28;20048;-45
2021/04/04 03:36:45;;;;;;;0.15;0.15;;;15.40;61.70;;;;;;4214921;28;20078;-46
2021/04/04 03:39:07;;;;;;;0.03;0.03;;;15.40;61.20;;;;;;4214862;28;20051;-47
2021/04/04 03:41:31;;;;;;;0.00;0.00;;;15.50;61.20;;;;;;4215088;28;20096;-47
2021/04/04 03:43:52;;;;;;;16.08;0.65;;;15.50;61.10;;;;;;4214643;28;20091;-49
2021/04/04 03:46:15;;;;;;;0.00;0.00;;;15.50;61.00;;;;;;4214385;28;20422;-45
2021/04/04 03:48:37;;;;;;;0.00;0.00;;;15.50;61.10;;;;;;4214655;28;20083;-47
2021/04/04 03:51:01;;;;;;;0.00;0.00;;;15.50;61.30;;;;;;4214803;28;20044;-46
2021/04/04 03:53:25;;;;;;;0.00;0.00;;;15.40;61.40;;;;;;4214636;28;20048;-46
2021/04/04 03:55:47;;;;;;;0.10;0.10;;;15.40;61.60;;;;;;4214680;28;20540;-44
2021/04/04 03:58:11;;;;;;;0.00;0.00;;;15.40;61.40;;;;;;4214404;28;20048;-45
2021/04/04 04:00:34;;;;;;;0.00;0.00;;;15.50;61.20;;;;;;4214497;28;20517;-44
2021/04/04 04:02:57;;;;;;;0.00;0.00;;;15.50;60.90;;;;;;4214554;28;20048;-50
2021/04/04 04:05:21;;;;;;;0.00;0.00;;;15.50;60.70;;;;;;4214159;28;20051;-46
2021/04/04 04:07:42;;;;;;;0.10;0.10;;;15.50;60.60;;;;;;4214265;28;20071;-47
2021/04/04 04:10:05;;;;;;;0.73;0.73;;;15.40;60.70;;;;;;4197620;28;20097;-45
2021/04/04 04:12:27;;;;;;;0.00;0.00;;;15.40;60.90;;;;;;4197639;28;20102;-47
2021/04/04 04:14:49;;;;;;;1.00;1.00;;;15.40;61.10;;;;;;4202363;28;20146;-46
2021/04/04 04:17:13;;;;;;;0.00;0.00;;;15.30;61.10;;;;;;4214340;28;20121;-44
2021/04/04 04:19:36;;;;;;;0.00;0.00;;;15.40;61.40;;;;;;4212815;28;20052;-45
2021/04/04 04:21:58;;;;;;;3.92;1.00;;;15.50;61.20;;;;;;4214097;28;20052;-47
2021/04/04 04:24:19;;;;;;;0.00;0.00;;;15.60;60.90;;;;;;4212558;28;20714;-44
2021/04/04 04:26:41;;;;;;;;;;;15.70;60.60;;;;;;4199505;28;20064;-45
2021/04/04 04:29:02;;;;;;;0.00;0.00;;;15.70;60.50;;;;;;4213794;28;19923;-44
2021/04/04 04:31:30;;;;;;;0.40;0.40;;;15.70;60.40;;;;;;4213886;28;20675;-45
2021/04/04 04:33:54;;;;;;;0.00;0.00;;;15.70;60.40;;;;;;4213982;28;20102;-44
2021/04/04 04:36:16;;;;;;;0.00;0.00;;;15.60;60.60;;;;;;4213972;28;20074;-45
2021/04/04 04:38:39;;;;;;;0.00;0.00;;;15.70;60.70;;;;;;4213702;28;20097;-46
2021/04/04 04:41:01;;;;;;;0.00;0.00;;;15.60;60.80;;;;;;4213863;28;20062;-44
2021/04/04 04:43:22;;;;;;;;;;;15.60;60.90;;;;;;4214214;28;20082;-44
2021/04/04 04:45:45;;;;;;;0.00;0.00;;;15.60;60.90;;;;;;4213131;28;20031;-45
2021/04/04 04:48:09;;;;;;;0.00;0.00;;;15.60;61.00;;;;;;4213814;28;20075;-44
2021/04/04 04:50:30;;;;;;;0.45;0.45;;;15.60;61.00;;;;;;4213720;28;20105;-44
2021/04/04 04:52:52;;;;;;;0.00;0.00;;;15.60;61.10;;;;;;4213563;28;20501;-45
2021/04/04 04:55:14;;;;;;;0.00;0.00;;;15.60;61.00;;;;;;4212636;28;20087;-47
2021/04/04 04:57:35;;;;;;;;;;;15.70;60.90;;;;;;4213873;28;20131;-45
2021/04/04 05:00:00;;;;;;;0.00;0.00;;;15.70;60.90;;;;;;4213199;28;19958;-49
2021/04/04 05:02:22;;;;;;;0.52;0.52;;;15.70;60.70;;;;;;4213304;28;20078;-44
2021/04/04 05:04:47;;;;;;;0.00;0.00;;;15.80;60.70;;;;;;4213497;28;20044;-47
2021/04/04 05:07:09;;;;;;;0.20;0.20;;;15.90;60.30;;;;;;4213527;28;20487;-44
2021/04/04 05:09:34;;;;;;;0.00;0.00;;;15.90;60.00;;;;;;4212426;28;20491;-45
2021/04/04 05:11:56;;;;;;;0.20;0.20;;;16.00;59.80;;;;;;4213411;28;20052;-47
2021/04/04 05:14:17;;;;;;;0.00;0.00;;;16.00;59.80;;;;;;4211834;28;20052;-48
2021/04/04 05:16:39;;;;;;;;;;;16.00;60.80;;;;;;4213562;28;20139;-45
2021/04/04 05:19:00;;;;;;;0.28;0.28;;;16.00;59.90;;;;;;4213242;28;19928;-47
2021/04/04 05:21:24;;;;;;;0.00;0.00;;;16.00;60.80;;;;;;4213023;28;20795;-50
2021/04/04 05:23:46;;;;;;;0.00;0.00;;;15.90;59.90;;;;;;4213133;28;20094;-48
2021/04/04 05:26:07;;;;;;;0.15;0.15;;;15.90;60.10;;;;;;4213059;28;20059;-45
2021/04/04 05:28:28;;;;;;;0.43;0.25;;;15.90;60.20;;;;;;4213210;28;20051;-46
2021/04/04 05:30:48;;;;;;;0.00;0.00;;;15.80;60.30;;;;;;4211961;28;20064;-51
2021/04/04 05:33:10;;;;;;;0.25;0.25;;;15.80;60.60;;;;;;4213179;28;20300;-46
2021/04/04 05:35:36;;;;;;;0.00;0.00;;;15.70;60.80;;;;;;4211782;28;20100;-48
2021/04/04 05:37:58;;;;;;;0.08;0.08;;;15.60;60.90;;;;;;4211414;28;20568;-44
2021/04/04 05:40:24;;;;;;;0.65;0.65;;;15.60;60.90;;;;;;4212854;28;20142;-43
2021/04/04 05:42:51;;;;;;;0.10;0.10;;;15.50;61.20;;;;;;4213453;28;20082;-44
2021/04/04 05:45:14;;;;;;;0.00;0.00;;;15.50;61.50;;;;;;4212441;28;20494;-52
2021/04/04 05:47:42;;;;;;;1.25;1.13;;;15.60;61.40;;;;;;4212628;28;20040;-46
2021/04/04 05:50:05;;;;;;;0.00;0.00;;;15.60;61.20;;;;;;4202308;28;20055;-44
2021/04/04 05:52:38;;;;;;;0.20;0.20;;;15.60;61.10;;;;;;4211609;28;20048;-47
2021/04/04 05:55:09;;;;;;;0.03;0.03;;;15.70;61.20;;;;;;4205935;28;20127;-44
2021/04/04 05:57:35;;;;;;;0.80;0.80;;;15.80;60.90;;;;;;4212261;28;20059;-46
2021/04/04 06:00:02;;;;;;;0.08;0.08;;;15.90;60.40;;;;;;4212524;28;20076;-45
2021/04/04 06:03:08;;;;;;;0.08;0.08;;;15.90;60.30;;;;;;4212642;28;20078;-44
2021/04/04 06:06:02;;;;;;;0.00;0.00;;;16.00;60.10;;;;;;4212732;28;20051;-45
2021/04/04 06:08:40;;;;;;;0.20;0.20;;;16.00;60.10;;;;;;4167762;28;20053;-45
2021/04/04 06:11:11;;;;;;;1.25;1.25;;;16.00;60.10;;;;;;4212363;28;20075;-51
2021/04/04 06:13:45;;;;;;;0.10;0.10;;;16.00;60.00;;;;;;4211452;28;20269;-50
2021/04/04 06:16:17;;;;;;;0.52;0.52;;;16.10;59.80;;;;;;4212571;28;20083;-45
2021/04/04 06:18:47;;;;;;;0.38;0.38;;;16.00;60.60;;;;;;4212164;28;20059;-46
2021/04/04 06:21:19;;;;;;;0.20;0.20;;;16.00;59.90;;;;;;4212446;28;20056;-43
2021/04/04 06:23:46;;;;;;;0.03;0.03;;;15.90;59.80;;;;;;4212137;28;20148;-46
2021/04/04 06:26:19;;;;;;;0.43;0.43;;;15.90;59.80;;;;;;4212369;28;20048;-47
2021/04/04 06:28:50;;;;;;;0.00;0.00;;;15.90;60.50;;;;;;4212507;28;20147;-51
2021/04/04 06:31:21;;;;;;;0.17;0.17;;;15.90;59.60;;;;;;4212225;28;20475;-45
2021/04/04 06:33:44;;;;;;;5.72;1.55;;;15.90;59.50;;;;;;4211924;28;20055;-44
2021/04/04 06:36:24;;;;;;;0.75;0.75;;;15.90;59.30;;;;;;4212227;28;20483;-53
2021/04/04 06:38:56;;;;;;;0.10;0.10;;;16.00;59.20;;;;;;4212225;28;20388;-45
2021/04/04 06:41:28;;;;;;;0.00;0.00;;;16.00;59.10;;;;;;4211325;28;20570;-45
2021/04/04 06:43:57;;;;;;;0.10;0.10;;;16.10;58.80;;;;;;4208483;28;20389;-45
2021/04/04 06:46:33;;;;;;;0.45;0.45;;;16.10;58.60;;;;;;4205196;28;20080;-50
2021/04/04 06:49:06;;;;;;;0.03;0.03;;;16.20;58.40;;;;;;4215159;28;20056;-45
2021/04/04 06:51:38;;;;;;;0.00;0.00;;;16.10;59.00;;;;;;4211649;28;20056;-43
2021/04/04 06:54:11;;;;;;;0.00;0.00;;;16.10;58.20;;;;;;4215555;28;20051;-44
2021/04/04 06:56:46;;;;;;;0.30;0.30;;;16.00;58.50;;;;;;4215393;28;20116;-49
2021/04/04 06:59:17;;;;;;;0.00;0.00;;;15.90;58.50;;;;;;4214985;28;20413;-50
2021/04/04 07:01:55;;;;;;;0.15;0.15;;;15.90;58.60;;;;;;4215348;28;20059;-47
2021/04/04 07:04:23;;;;;;;0.32;0.32;;;15.90;58.60;;;;;;4215022;28;20048;-48
2021/04/04 07:07:05;;;;;;;0.00;0.00;;;15.90;58.40;;;;;;4215330;28;20055;-45
2021/04/04 07:09:54;;;;;;;2.30;2.20;;;16.00;58.20;;;;;;4215391;28;20587;-50
2021/04/04 07:12:31;;;;;;;4.68;1.75;;;16.00;58.30;;;;;;4214421;28;20048;-48
2021/04/04 07:15:14;;;;;;;0.35;0.35;;;16.00;58.20;;;;;;4214614;28;20165;-48
2021/04/04 07:17:54;;;;;;;0.00;0.00;;;16.00;58.10;;;;;;4214093;28;20064;-47
2021/04/04 07:20:34;;;;;;;0.30;0.30;;;15.90;58.20;;;;;;4214560;28;20063;-48
2021/04/04 07:23:24;;;;;;;3.10;1.75;;;16.00;58.20;;;;;;4215148;28;20052;-47
2021/04/04 07:25:51;;;;;;;0.20;0.20;;;16.10;58.00;;;;;;4213878;28;20173;-49
2021/04/04 07:28:24;;;;;;;0.00;0.00;;;16.20;57.70;;;;;;4197888;28;20063;-51
2021/04/04 07:30:50;;;;;;;1.65;1.55;;;16.30;57.80;;;;;;4203768;28;20040;-52
2021/04/04 07:33:25;;;;;;;0.32;0.28;;;16.30;57.90;;;;;;4214956;28;20062;-49
2021/04/04 07:35:56;;;;;;;0.10;0.10;;;16.20;57.70;;;;;;4214438;28;20048;-48
2021/04/04 07:38:29;;;;;;;0.00;0.00;;;16.30;58.50;;;;;;4203245;28;20051;-48
2021/04/04 07:40:57;;;;;;;0.08;0.08;;;16.30;57.80;;;;;;4214689;28;20101;-45
2021/04/04 07:43:27;;;;;;;0.05;0.05;;;16.30;57.60;;;;;;4214518;28;20065;-45
2021/04/04 07:46:01;;;;;;;0.10;0.10;;;16.30;57.60;;;;;;4208896;28;20070;-46
2021/04/04 07:48:26;;;;;;;0.90;0.85;;;16.20;57.60;;;;;;4214788;28;20135;-47
2021/04/04 07:50:57;;;;;;;0.65;0.65;;;16.20;57.50;;;;;;4214548;28;20453;-48
2021/04/04 07:53:24;;;;;;;0.10;0.10;;;16.10;57.70;;;;;;4214065;28;20063;-45
2021/04/04 07:55:50;;;;;;;0.22;0.22;;;16.00;57.90;;;;;;4214528;28;20063;-47
2021/04/04 07:58:20;;;;;;;0.25;0.25;;;15.90;58.10;;;;;;4212112;28;20422;-45
2021/04/04 08:00:48;;;;;;;0.10;0.10;;;15.80;58.20;;;;;;4213590;28;20047;-47
2021/04/04 08:03:16;;;;;;;0.00;0.00;;;15.80;58.30;;;;;;4197510;28;20442;-49
2021/04/04 08:05:49;;;;;;;0.85;0.40;;;15.70;58.30;;;;;;4209100;28;20130;-46
2021/04/04 08:08:15;;;;;;;0.15;0.15;;;15.60;58.50;;;;;;4212976;28;20044;-47
2021/04/04 08:10:39;;;;;;;0.63;0.63;;;15.60;58.70;;;;;;4212729;28;20126;-45
2021/04/04 08:13:09;;;;;;;0.10;0.10;;;15.60;58.80;;;;;;4199115;28;20135;-46
2021/04/04 08:15:39;;;;;;;5.90;1.77;;;15.70;58.70;;;;;;4213901;28;20056;-45
2021/04/04 08:18:01;;;;;;;0.00;0.00;;;15.80;58.50;;;;;;4212424;28;20150;-47
2021/04/04 08:20:25;;;;;;;0.30;0.30;;;15.90;58.10;;;;;;4212237;28;20052;-47
2021/04/04 08:22:59;;;;;;;0.00;0.00;;;15.90;57.90;;;;;;4213450;28;20039;-43
2021/04/04 08:25:28;;;;;;;0.00;0.00;;;15.90;57.70;;;;;;4214044;28;20048;-43
2021/04/04 08:27:56;;;;;;;0.00;0.00;;;15.90;57.70;;;;;;4198023;28;20052;-43
2021/04/04 08:30:24;;;;;;;0.10;0.10;;;15.80;57.60;;;;;;4214068;28;20506;-43
2021/04/04 08:32:52;;;;;;;0.00;0.00;;;15.80;57.70;;;;;;4214035;28;20486;-46
2021/04/04 08:35:18;;;;;;;1.77;0.13;;;15.80;57.70;;;;;;4213840;28;20563;-44
2021/04/04 08:37:44;;;;;;;0.00;0.00;;;15.80;57.70;;;;;;4213903;28;20048;-44
2021/04/04 08:40:11;;;;;;;0.00;0.00;;;16.20;57.00;;;;;;4213625;28;20052;-44
2021/04/04 08:42:33;;;;;;;0.00;0.00;;;17.00;55.20;;;;;;4213511;28;20055;-45
2021/04/04 08:45:01;;;;;;;0.10;0.10;;;17.80;53.10;;;;;;4197207;28;20076;-44
2021/04/04 08:47:27;;;;;;;0.20;0.20;;;18.60;51.00;;;;;;4197295;28;20604;-43
2021/04/04 08:49:50;;;;;;;0.00;0.00;;;19.50;48.80;;;;;;4197095;28;20044;-45
2021/04/04 08:52:20;;;;;;;0.00;0.00;;;20.30;47.00;;;;;;4197215;28;20546;-47
2021/04/04 08:54:48;;;;;;;2.30;1.25;;;21.10;45.20;;;;;;4212579;28;20131;-42
2021/04/04 08:57:10;;;;;;;3.95;2.17;;;21.80;43.30;;;;;;4213600;28;20048;-42
2021/04/04 08:59:36;;;;;;;0.00;0.00;;;22.30;42.20;;;;;;4213190;28;20134;-45
2021/04/04 09:02:01;;;;;;;0.00;0.00;;;22.50;41.50;;;;;;4213795;28;20071;-46
2021/04/04 09:04:25;;;;;;;0.00;0.00;;;22.50;41.30;;;;;;4213493;28;20048;-43
2021/04/04 09:06:47;;;;;;;0.40;0.40;;;22.30;41.70;;;;;;4213288;28;20135;-43
2021/04/04 09:09:22;;;;;;;0.38;0.38;;;22.10;42.10;;;;;;4213393;28;20058;-43
2021/04/04 09:11:44;;;;;;;0.00;0.00;;;21.60;43.10;;;;;;4213627;28;20491;-46
2021/04/04 09:14:06;;;;;;;0.28;0.28;;;21.30;44.00;;;;;;4212818;28;20059;-43
2021/04/04 09:16:28;;;;;;;0.00;0.00;;;20.90;44.70;;;;;;4212830;28;20055;-47
2021/04/04 09:18:50;;;;;;;0.32;0.20;;;20.60;45.40;;;;;;4213098;28;20127;-47
2021/04/04 09:21:12;;;;;;;2.05;1.35;;;20.20;46.00;;;;;;4211982;28;20062;-50
2021/04/04 09:23:36;;;;;;;0.80;0.73;;;19.90;46.70;;;;;;4213196;28;20052;-43
2021/04/04 09:26:03;;;;;;;0.57;0.57;;;19.50;47.50;;;;;;4212181;28;20506;-43
2021/04/04 09:28:27;;;;;;;0.03;0.03;;;19.20;48.10;;;;;;4212860;28;20058;-43
2021/04/04 09:30:49;;;;;;;0.20;0.20;;;19.10;48.70;;;;;;4213115;28;20117;-43
2021/04/04 09:33:12;;;;;;;0.00;0.00;;;19.20;48.60;;;;;;4212613;28;20569;-42
2021/04/04 09:35:34;;;;;;;0.05;0.05;;;19.30;48.30;;;;;;4213099;28;20506;-43
2021/04/04 09:38:01;;;;;;;0.75;0.75;;;19.40;47.90;;;;;;4212771;28;20048;-42
2021/04/04 09:40:22;;;;;;;0.03;0.03;;;19.60;47.80;;;;;;4212833;28;20418;-50
2021/04/04 09:42:45;;;;;;;;;;;19.70;47.40;;;;;;4198485;28;20053;-42
2021/04/04 09:45:16;;;;;;;0.00;0.00;;;19.70;47.20;;;;;;4212788;28;19920;-43
2021/04/04 09:47:37;;;;;;;0.13;0.13;;;19.70;47.10;;;;;;4212830;28;20048;-43
2021/04/04 09:49:57;;;;;;;0.10;0.10;;;19.80;47.10;;;;;;4212784;28;20052;-43
2021/04/04 09:52:27;;;;;;;0.00;0.00;;;19.80;46.70;;;;;;4212575;28;20055;-42
2021/04/04 09:55:03;;;;;;;0.25;0.25;;;19.80;46.70;;;;;;4212286;28;20052;-46
2021/04/04 09:57:40;;;;;;;0.25;0.25;;;19.80;47.10;;;;;;4212117;28;20055;-45
2021/04/04 10:00:18;;;;;;;0.00;0.00;;;19.70;47.10;;;;;;4212560;28;20460;-43
2021/04/04 10:02:39;;;;;;;0.10;0.10;;;19.70;47.20;;;;;;4211501;28;20102;-44
2021/04/04 10:05:01;;;;;;;;;;;19.70;47.40;;;;;;4213189;28;20080;-44
2021/04/04 10:07:27;;;;;;;2.15;0.43;;;19.50;47.60;;;;;;4212664;28;20029;-43
2021/04/04 10:09:48;;;;;;;0.28;0.28;;;19.40;47.70;;;;;;4212589;28;20055;-43
2021/04/04 10:12:10;;;;;;;0.10;0.10;;;19.40;48.00;;;;;;4212184;28;20166;-43
2021/04/04 10:14:30;;;;;;;0.00;0.00;;;19.50;48.10;;;;;;4212355;28;20055;-43
2021/04/04 10:17:08;;;;;;;0.00;0.00;;;19.50;47.60;;;;;;4212266;28;20044;-43
2021/04/04 10:19:29;;;;;;;0.00;0.00;;;19.60;47.50;;;;;;4212439;28;20052;-44
2021/04/04 10:21:55;;;;;;;0.10;0.10;;;19.70;47.00;;;;;;4211879;28;20075;-43
2021/04/04 10:24:30;;;;;;;1.10;1.10;;;19.80;46.90;;;;;;4195685;28;20118;-43
2021/04/04 10:27:18;;;;;;;0.00;0.00;;;19.80;46.80;;;;;;4195697;28;20526;-43
2021/04/04 10:29:41;;;;;;;0.55;0.55;;;19.80;46.70;;;;;;4197163;28;20051;-43
2021/04/04 10:32:06;;;;;;;0.40;0.40;;;19.70;46.90;;;;;;4209760;28;20052;-43
2021/04/04 10:34:44;;;;;;;0.10;0.10;;;19.60;47.10;;;;;;4212403;28;20493;-41
2021/04/04 10:37:05;;;;;;;0.00;0.00;;;19.40;47.80;;;;;;4212071;28;20151;-43
2021/04/04 10:39:26;;;;;;;0.10;0.10;;;19.20;48.10;;;;;;4212147;28;20144;-43
2021/04/04 10:41:47;;;;;;;0.32;0.32;;;19.10;48.60;;;;;;4211907;28;20052;-44
2021/04/04 10:44:23;;;;;;;0.00;0.00;;;18.90;49.00;;;;;;4211709;28;20056;-43
2021/04/04 10:46:44;;;;;;;0.00;0.00;;;18.70;49.80;;;;;;4212191;28;20048;-44
2021/04/04 10:49:05;;;;;;;0.00;0.00;;;18.50;50.30;;;;;;4211659;28;20052;-44
2021/04/04 10:51:29;;;;;;;0.77;0.77;;;18.60;50.50;;;;;;4212225;28;20517;-44
2021/04/04 10:53:50;;;;;;;0.45;0.45;;;18.80;50.30;;;;;;4211857;28;20059;-43
2021/04/04 10:56:12;;;;;;;0.98;0.98;;;18.90;50.70;;;;;;4212238;28;20113;-45
2021/04/04 10:58:36;;;;;;;2.20;1.20;;;19.10;49.50;;;;;;4212053;28;20131;-44
2021/04/04 11:01:00;;;;;;;0.00;0.00;;;19.10;49.20;;;;;;4212183;28;20568;-44
2021/04/04 11:03:22;;;;;;;0.20;0.20;;;19.10;49.20;;;;;;4211758;28;20055;-43
2021/04/04 11:05:43;;;;;;;0.80;0.80;;;19.00;49.30;;;;;;4212277;28;20079;-44
2021/04/04 11:08:08;;;;;;;0.98;0.98;;;18.90;49.60;;;;;;4211062;28;20143;-45
2021/04/04 11:10:29;;;;;;;0.00;0.00;;;18.70;50.00;;;;;;4212121;28;20052;-54
2021/04/04 11:12:51;;;;;;;0.13;0.13;;;18.50;50.20;;;;;;4210497;28;20062;-44
2021/04/04 11:15:15;;;;;;;0.15;0.15;;;18.40;50.60;;;;;;4211870;28;20059;-43
2021/04/04 11:17:37;;;;;;;0.10;0.10;;;18.20;51.00;;;;;;4212025;28;20551;-43
2021/04/04 11:19:59;;;;;;;0.20;0.20;;;18.10;51.50;;;;;;4211875;28;20056;-43
2021/04/04 11:22:22;;;;;;;0.00;0.00;;;18.20;51.40;;;;;;4211725;28;20084;-45
2021/04/04 11:24:58;;;;;;;0.10;0.10;;;18.40;51.00;;;;;;4212051;28;20134;-43
2021/04/04 11:27:19;;;;;;;0.00;0.00;;;18.60;50.40;;;;;;4211539;28;20059;-43
2021/04/04 11:29:44;;;;;;;0.00;0.00;;;18.70;50.40;;;;;;4210859;28;20052;-43
2021/04/04 11:32:16;;;;;;;0.10;0.10;;;18.60;50.20;;;;;;4211759;28;20639;-44
2021/04/04 11:34:39;;;;;;;0.00;0.00;;;18.60;50.40;;;;;;4214262;28;20509;-43
2021/04/04 11:37:03;;;;;;;0.57;0.57;;;18.60;50.40;;;;;;4212058;28;20063;-43
2021/04/04 11:39:25;;;;;;;0.55;0.55;;;18.80;50.80;;;;;;4215020;28;20117;-43
2021/04/04 11:41:49;;;;;;;6.35;1.00;;;18.90;50.10;;;;;;4214474;28;20054;-44
2021/04/04 11:44:19;;;;;;;1.10;1.10;;;18.90;49.60;;;;;;4214732;28;20071;-45
2021/04/04 11:46:43;;;;;;;0.00;0.00;;;18.90;50.30;;;;;;4214414;28;20498;-43
2021/04/04 11:49:35;;;;;;;0.47;0.47;;;18.90;49.60;;;;;;4214413;28;20044;-45
2021/04/04 11:51:58;;;;;;;0.00;0.00;;;18.80;49.80;;;;;;4197867;28;20422;-43
2021/04/04 11:54:49;;;;;;;0.00;0.00;;;18.90;49.60;;;;;;4197795;28;20568;-43
2021/04/04 11:57:11;;;;;;;0.20;0.20;;;18.90;49.20;;;;;;4197928;28;20560;-42
2021/04/04 11:59:37;;;;;;;0.00;0.00;;;18.90;49.20;;;;;;4197664;28;20526;-43
2021/04/04 12:01:58;;;;;;;0.20;0.20;;;18.80;49.50;;;;;;4214100;28;20546;-43
2021/04/04 12:04:31;;;;;;;0.10;0.10;;;18.80;49.90;;;;;;4214550;28;20475;-43
2021/04/04 12:07:04;;;;;;;0.10;0.10;;;18.80;50.20;;;;;;4214650;28;20060;-42
2021/04/04 12:09:27;;;;;;;2.42;1.00;;;18.90;49.70;;;;;;4214322;28;20093;-42
2021/04/04 12:11:49;;;;;;;0.00;0.00;;;19.00;49.20;;;;;;4214476;28;20465;-43
2021/04/04 12:14:11;;;;;;;0.10;0.10;;;19.00;48.90;;;;;;4213963;28;20048;-44
2021/04/04 12:16:50;;;;;;;5.00;1.52;;;18.90;48.70;;;;;;4213615;28;20118;-43
2021/04/04 12:19:24;;;;;;;0.30;0.30;;;18.80;48.90;;;;;;4214058;28;20052;-43
2021/04/04 12:21:49;;;;;;;0.08;0.08;;;18.80;48.80;;;;;;4213940;28;20163;-47
2021/04/04 12:24:10;;;;;;;0.00;0.00;;;18.70;49.00;;;;;;4213877;28;20135;-44
2021/04/04 12:26:32;;;;;;;0.00;0.00;;;18.70;48.90;;;;;;4213933;28;20055;-43
2021/04/04 12:28:56;;;;;;;0.00;0.00;;;18.60;49.20;;;;;;4213748;28;20464;-44
2021/04/04 12:31:19;;;;;;;0.00;0.00;;;18.50;49.50;;;;;;4213614;28;20062;-43
2021/04/04 12:33:42;;;;;;;0.00;0.00;;;18.40;49.70;;;;;;4213767;28;20054;-46
2021/04/04 12:36:05;;;;;;;0.15;0.15;;;18.50;49.40;;;;;;4213853;28;20075;-46
2021/04/04 12:38:30;;;;;;;0.10;0.10;;;18.70;49.00;;;;;;4213795;28;20134;-43